createdAt,value
2022-08-05T00:00:16.116Z,100621.97
2022-08-05T00:02:51.577Z,100614.41
2022-08-05T00:05:27.232Z,100618.75
2022-08-05T00:08:32.530Z,100610.91
2022-08-05T00:11:00.833Z,100616.19
2022-08-05T00:13:38.128Z,100607.78
2022-08-05T00:16:08.444Z,100596.13
2022-08-05T00:18:38.158Z,100599.66
2022-08-05T00:21:08.465Z,100596.03
2022-08-05T00:23:46.102Z,100596.03
2022-08-05T00:26:22.304Z,100597.53
2022-08-05T00:28:50.924Z,100584.72
2022-08-05T00:31:53.657Z,100575.56
2022-08-05T00:34:54.549Z,100581.00
2022-08-05T00:37:10.805Z,100581.63
2022-08-05T00:39:57.429Z,100578.53
2022-08-05T00:42:32.978Z,100581.31
2022-08-05T00:45:01.537Z,100583.63
2022-08-05T00:47:49.184Z,100582.38
2022-08-05T00:50:20.869Z,100586.94
2022-08-05T00:52:49.057Z,100579.34
2022-08-05T00:55:17.009Z,100580.94
2022-08-05T00:57:55.308Z,100568.59
2022-08-05T01:00:26.031Z,100573.81
2022-08-05T01:02:54.076Z,100576.41
2022-08-05T01:05:23.579Z,100577.53
2022-08-05T01:08:41.885Z,100576.69
2022-08-05T01:10:51.549Z,100588.28
2022-08-05T01:13:27.385Z,100592.97
2022-08-05T01:16:21.078Z,100592.19
2022-08-05T01:19:00.775Z,100597.44
2022-08-05T01:21:53.801Z,100599.94
2022-08-05T01:24:36.718Z,100597.44
2022-08-05T01:27:24.340Z,100598.84
2022-08-05T01:29:57.169Z,100600.72
2022-08-05T01:32:29.105Z,100601.50
2022-08-05T01:35:00.488Z,100594.78
2022-08-05T01:37:36.605Z,100599.13
2022-08-05T01:40:10.176Z,100601.13
2022-08-05T01:42:40.868Z,100594.19
2022-08-05T01:45:11.777Z,100589.06
2022-08-05T01:47:46.383Z,100590.88
2022-08-05T01:50:19.390Z,100592.69
2022-08-05T01:53:00.940Z,100585.09
2022-08-05T01:55:36.232Z,100580.09
2022-08-05T01:58:29.640Z,100571.66
2022-08-05T02:00:59.229Z,100567.59
2022-08-05T02:03:34.089Z,100578.50
2022-08-05T02:06:24.252Z,100588.81
2022-08-05T02:08:58.639Z,100603.25
2022-08-05T02:11:33.644Z,100604.72
2022-08-05T02:14:12.467Z,100606.97
2022-08-05T02:16:52.822Z,100606.22
2022-08-05T02:19:34.153Z,100630.59
2022-08-05T02:22:10.845Z,100645.13
2022-08-05T02:25:00.138Z,100682.34
2022-08-05T02:27:57.932Z,100719.41
2022-08-05T02:30:18.222Z,100738.06
2022-08-05T02:32:51.332Z,100751.00
2022-08-05T02:35:28.138Z,100768.56
2022-08-05T02:38:02.956Z,100777.75
2022-08-05T02:40:32.516Z,100764.06
2022-08-05T02:43:02.391Z,100762.56
2022-08-05T02:45:51.510Z,100757.94
2022-08-05T02:48:29.347Z,100764.44
2022-08-05T02:51:00.352Z,100760.94
2022-08-05T02:53:35.985Z,100747.31
2022-08-05T02:56:09.287Z,100759.47
2022-08-05T02:58:38.277Z,100735.19
2022-08-05T03:01:15.784Z,100723.34
2022-08-05T03:04:02.113Z,100758.63
2022-08-05T03:06:54.660Z,100758.78
2022-08-05T03:09:27.095Z,100750.41
2022-08-05T03:12:06.781Z,100749.63
2022-08-05T03:14:45.617Z,100764.38
2022-08-05T03:17:14.137Z,100757.53
2022-08-05T03:19:45.780Z,100769.84
2022-08-05T03:22:19.007Z,100774.13
2022-08-05T03:25:11.551Z,100778.41
2022-08-05T03:27:59.092Z,100762.22
2022-08-05T03:30:33.776Z,100787.06
2022-08-05T03:33:02.881Z,100787.84
2022-08-05T03:35:33.682Z,100793.38
2022-08-05T03:38:02.527Z,100802.53
2022-08-05T03:40:31.972Z,100798.88
2022-08-05T03:43:15.763Z,100794.75
2022-08-05T03:45:57.140Z,100785.72
2022-08-05T03:48:27.146Z,100787.72
2022-08-05T03:52:37.264Z,100784.59
2022-08-05T03:55:50.441Z,100780.81
2022-08-05T03:56:48.073Z,100775.81
2022-08-05T03:59:22.614Z,100757.59
2022-08-05T04:01:58.993Z,100751.22
2022-08-05T04:04:29.084Z,100734.28
2022-08-05T04:07:00.187Z,100728.97
2022-08-05T04:09:29.146Z,100737.72
2022-08-05T04:11:57.464Z,100736.75
2022-08-05T04:14:29.962Z,100737.47
2022-08-05T04:16:59.749Z,100730.31
2022-08-05T04:19:29.388Z,100729.84
2022-08-05T04:22:08.930Z,100726.00
2022-08-05T04:24:43.833Z,100713.44
2022-08-05T04:27:13.087Z,100694.44
2022-08-05T04:29:41.534Z,100660.31
2022-08-05T04:32:10.923Z,100623.88
2022-08-05T04:34:42.847Z,100575.63
2022-08-05T04:37:12.773Z,100579.25
2022-08-05T04:39:40.861Z,100602.59
2022-08-05T04:42:09.744Z,100598.47
2022-08-05T04:44:37.560Z,100603.63
2022-08-05T04:47:09.608Z,100608.81
2022-08-05T04:50:02.792Z,100609.59
2022-08-05T04:52:28.855Z,100621.78
2022-08-05T04:54:57.034Z,100619.66
2022-08-05T04:57:28.505Z,100616.31
2022-08-05T04:59:58.523Z,100649.06
2022-08-05T05:02:37.045Z,100668.84
2022-08-05T05:05:16.617Z,100684.88
2022-08-05T05:08:01.613Z,100689.78
2022-08-05T05:10:30.319Z,100683.97
2022-08-05T05:12:58.468Z,100690.78
2022-08-05T05:15:56.211Z,100703.34
2022-08-05T05:18:31.601Z,100709.41
2022-08-05T05:21:01.685Z,100728.22
2022-08-05T05:24:02.126Z,100735.47
2022-08-05T05:26:18.910Z,100731.88
2022-08-05T05:28:46.921Z,100730.16
2022-08-05T05:31:14.957Z,100718.31
2022-08-05T05:33:59.632Z,100717.09
2022-08-05T05:36:30.096Z,100716.25
2022-08-05T05:38:59.910Z,100723.88
2022-08-05T05:41:40.066Z,100739.50
2022-08-05T05:44:35.693Z,100739.63
2022-08-05T05:46:57.874Z,100731.31
2022-08-05T05:49:26.115Z,100751.84
2022-08-05T05:51:54.128Z,100753.31
2022-08-05T05:54:50.558Z,100745.69
2022-08-05T05:57:13.683Z,100738.31
2022-08-05T05:59:51.417Z,100748.63
2022-08-05T06:02:32.502Z,100755.38
2022-08-05T06:05:10.534Z,100751.28
2022-08-05T06:08:01.182Z,100753.75
2022-08-05T06:10:31.669Z,100763.41
2022-08-05T06:13:04.985Z,100747.69
2022-08-05T06:16:28.660Z,100728.56
2022-08-05T06:18:21.864Z,100732.03
2022-08-05T06:20:59.338Z,100745.13
2022-08-05T06:23:27.502Z,100747.94
2022-08-05T06:26:21.349Z,100751.13
2022-08-05T06:28:52.053Z,100756.25
2022-08-05T06:31:22.278Z,100754.69
2022-08-05T06:34:07.406Z,100761.41
2022-08-05T06:36:56.871Z,100758.56
2022-08-05T06:39:27.733Z,100760.25
2022-08-05T06:41:58.851Z,100758.63
2022-08-05T06:44:28.092Z,100764.69
2022-08-05T06:46:56.500Z,100765.06
2022-08-05T06:50:02.084Z,100764.47
2022-08-05T06:52:36.412Z,100768.88
2022-08-05T06:55:00.643Z,100770.31
2022-08-05T06:57:57.692Z,100778.94
2022-08-05T07:00:24.557Z,100785.88
2022-08-05T07:02:53.637Z,100794.09
2022-08-05T07:05:37.000Z,100791.78
2022-08-05T07:08:05.996Z,100795.47
2022-08-05T07:10:39.203Z,100792.06
2022-08-05T07:13:58.457Z,100798.47
2022-08-05T07:17:58.332Z,100810.81
2022-08-05T07:20:30.978Z,100815.16
2022-08-05T07:22:36.034Z,100811.75
2022-08-05T07:25:23.802Z,100827.06
2022-08-05T07:27:58.374Z,100826.03
2022-08-05T07:30:33.601Z,100827.63
2022-08-05T07:33:05.203Z,100833.09
2022-08-05T07:36:01.938Z,100835.09
2022-08-05T07:38:33.008Z,100842.44
2022-08-05T07:42:07.099Z,100842.78
2022-08-05T07:43:55.128Z,100837.00
2022-08-05T07:46:26.680Z,100839.50
2022-08-05T07:49:01.835Z,100833.28
2022-08-05T07:51:40.882Z,100835.28
2022-08-05T07:54:18.753Z,100844.50
2022-08-05T07:57:01.842Z,100855.50
2022-08-05T07:59:39.840Z,100852.03
2022-08-05T08:02:15.724Z,100847.00
2022-08-05T08:04:47.293Z,100859.00
2022-08-05T08:07:15.547Z,100865.78
2022-08-05T08:09:43.786Z,100868.34
2022-08-05T08:12:36.825Z,100867.34
2022-08-05T08:15:02.584Z,100871.84
2022-08-05T08:17:33.216Z,100880.09
2022-08-05T08:20:23.058Z,100882.66
2022-08-05T08:22:55.621Z,100885.94
2022-08-05T08:25:26.723Z,100882.56
2022-08-05T08:28:18.129Z,100897.78
2022-08-05T08:30:49.962Z,100912.03
2022-08-05T08:33:19.875Z,100921.88
2022-08-05T08:35:52.402Z,100933.50
2022-08-05T08:38:35.362Z,100925.25
2022-08-05T08:41:07.453Z,100926.19
2022-08-05T08:45:17.760Z,100921.19
2022-08-05T08:46:28.285Z,100926.88
2022-08-05T08:50:03.772Z,100928.28
2022-08-05T08:52:04.359Z,100930.56
2022-08-05T08:54:37.964Z,100929.59
2022-08-05T08:57:13.329Z,100934.19
2022-08-05T08:59:47.339Z,100934.84
2022-08-05T09:02:20.639Z,100936.25
2022-08-05T09:05:16.899Z,100937.59
2022-08-05T09:07:39.889Z,100935.47
2022-08-05T09:10:27.827Z,100912.94
2022-08-05T09:13:04.525Z,100925.63
2022-08-05T09:15:36.931Z,100917.66
2022-08-05T09:18:08.831Z,100923.66
2022-08-05T09:20:38.536Z,100916.88
2022-08-05T09:23:10.482Z,100915.06
2022-08-05T09:26:03.325Z,100914.53
2022-08-05T09:28:33.765Z,100911.78
2022-08-05T09:31:22.925Z,100911.47
2022-08-05T09:33:56.235Z,100918.50
2022-08-05T09:36:38.425Z,100922.41
2022-08-05T09:39:24.481Z,100921.03
2022-08-05T09:42:08.419Z,100933.78
2022-08-05T09:44:37.948Z,100931.66
2022-08-05T09:47:12.556Z,100938.72
2022-08-05T09:50:00.450Z,100937.25
2022-08-05T09:52:32.879Z,100950.16
2022-08-05T09:55:57.696Z,100947.41
2022-08-05T09:57:54.657Z,100959.38
2022-08-05T10:00:30.629Z,100955.16
2022-08-05T10:02:59.114Z,100960.91
2022-08-05T10:05:32.780Z,100963.69
2022-08-05T10:08:34.947Z,100971.16
2022-08-05T10:10:54.235Z,100971.31
2022-08-05T10:13:45.755Z,100983.34
2022-08-05T10:16:37.711Z,100991.06
2022-08-05T10:19:11.795Z,100996.13
2022-08-05T10:21:41.167Z,101004.47
2022-08-05T10:24:13.674Z,101003.63
2022-08-05T10:26:51.298Z,101018.88
2022-08-05T10:29:23.696Z,101017.88
2022-08-05T10:32:54.505Z,101020.25
2022-08-05T10:35:01.174Z,101028.50
2022-08-05T10:37:40.271Z,101038.66
2022-08-05T10:40:28.250Z,101037.38
2022-08-05T10:43:02.327Z,101047.81
2022-08-05T10:45:41.707Z,101050.19
2022-08-05T10:48:39.572Z,101058.88
2022-08-05T10:51:29.120Z,101063.59
2022-08-05T10:54:01.067Z,101055.03
2022-08-05T10:56:45.198Z,101064.09
2022-08-05T11:00:02.840Z,101075.53
2022-08-05T11:02:14.546Z,101082.88
2022-08-05T11:05:00.255Z,101083.25
2022-08-05T11:07:33.065Z,101083.63
2022-08-05T11:10:27.689Z,101090.97
2022-08-05T11:12:59.417Z,101099.84
2022-08-05T11:15:44.047Z,101105.16
2022-08-05T11:18:30.160Z,101107.00
2022-08-05T11:21:02.560Z,101115.91
2022-08-05T11:24:05.378Z,101120.56
2022-08-05T11:26:33.522Z,101130.94
2022-08-05T11:29:11.358Z,101129.22
2022-08-05T11:31:58.023Z,101134.88
2022-08-05T11:34:50.766Z,101136.47
2022-08-05T11:38:28.065Z,101148.88
2022-08-05T11:41:13.913Z,101160.16
2022-08-05T11:44:06.620Z,101161.00
2022-08-05T11:46:58.620Z,101155.91
2022-08-05T11:49:27.641Z,101166.22
2022-08-05T11:51:57.687Z,101166.59
2022-08-05T11:54:33.271Z,101166.19
2022-08-05T11:57:08.407Z,101176.47
2022-08-05T11:59:51.197Z,101175.28
2022-08-05T12:02:31.793Z,101179.75
2022-08-05T12:05:07.203Z,101168.59
2022-08-05T12:08:10.384Z,101179.06
2022-08-05T12:10:43.442Z,101175.41
2022-08-05T12:13:16.319Z,101173.13
2022-08-05T12:15:45.028Z,101174.97
2022-08-05T12:18:18.841Z,101174.28
2022-08-05T12:20:48.474Z,101172.03
2022-08-05T12:23:17.262Z,101171.72
2022-08-05T12:25:52.480Z,101169.63
2022-08-05T12:28:37.889Z,101175.19
2022-08-05T12:31:06.563Z,101172.75
2022-08-05T12:33:38.706Z,101175.13
2022-08-05T12:36:08.343Z,101176.69
2022-08-05T12:38:39.576Z,101169.47
2022-08-05T12:41:13.423Z,101178.69
2022-08-05T12:43:53.560Z,101175.88
2022-08-05T12:46:28.831Z,101179.78
2022-08-05T12:49:00.645Z,101183.50
2022-08-05T12:52:12.956Z,101201.06
2022-08-05T12:54:26.657Z,101201.31
2022-08-05T12:56:56.424Z,101210.72
2022-08-05T12:59:46.900Z,101203.22
2022-08-05T13:02:16.758Z,101203.28
2022-08-05T13:04:52.619Z,101215.38
2022-08-05T13:07:47.760Z,101213.44
2022-08-05T13:10:14.481Z,101221.56
2022-08-05T13:12:51.163Z,101223.16
2022-08-05T13:15:41.148Z,101229.78
2022-08-05T13:18:10.513Z,101231.91
2022-08-05T13:20:40.695Z,101226.13
2022-08-05T13:23:08.611Z,101229.34
2022-08-05T13:25:52.603Z,101226.91
2022-08-05T13:28:24.532Z,101224.94
2022-08-05T13:30:53.376Z,101214.72
2022-08-05T13:34:23.605Z,101222.97
2022-08-05T13:36:14.573Z,101221.22
2022-08-05T13:38:43.235Z,101224.03
2022-08-05T13:41:11.978Z,101225.97
2022-08-05T13:43:44.988Z,101228.47
2022-08-05T13:47:02.035Z,101228.50
2022-08-05T13:49:11.705Z,101231.72
2022-08-05T13:51:46.462Z,101235.38
2022-08-05T13:54:16.423Z,101228.41
2022-08-05T13:56:51.610Z,101229.59
2022-08-05T13:59:24.308Z,101227.00
2022-08-05T14:01:58.414Z,101227.81
2022-08-05T14:04:49.844Z,101231.91
2022-08-05T14:07:26.098Z,101228.00
2022-08-05T14:10:10.503Z,101226.78
2022-08-05T14:12:38.604Z,101223.31
2022-08-05T14:16:08.774Z,101219.28
2022-08-05T14:17:59.430Z,101215.56
2022-08-05T14:20:27.747Z,101221.22
2022-08-05T14:22:56.924Z,101219.81
2022-08-05T14:25:28.441Z,101224.03
2022-08-05T14:27:58.544Z,101218.97
2022-08-05T14:30:28.122Z,101220.56
2022-08-05T14:32:56.951Z,101222.81
2022-08-05T14:35:37.464Z,101224.72
2022-08-05T14:38:31.935Z,101217.19
2022-08-05T14:41:06.432Z,101222.81
2022-08-05T14:44:01.511Z,101217.75
2022-08-05T14:46:28.698Z,101223.69
2022-08-05T14:48:59.485Z,101222.41
2022-08-05T14:51:31.852Z,101207.72
2022-08-05T14:54:27.500Z,101212.19
2022-08-05T14:56:49.448Z,101213.28
2022-08-05T14:59:21.307Z,101223.91
2022-08-05T15:01:49.964Z,101226.22
2022-08-05T15:04:20.451Z,101229.69
2022-08-05T15:06:50.102Z,101228.28
2022-08-05T15:09:52.194Z,101231.91
2022-08-05T15:12:09.506Z,101229.88
2022-08-05T15:14:50.274Z,101224.31
2022-08-05T15:17:44.823Z,101231.81
2022-08-05T15:20:19.038Z,101235.78
2022-08-05T15:22:52.171Z,101239.81
2022-08-05T15:25:40.898Z,101245.31
2022-08-05T15:28:13.361Z,101249.31
2022-08-05T15:30:43.349Z,101250.78
2022-08-05T15:33:12.114Z,101244.09
2022-08-05T15:35:45.286Z,101253.25
2022-08-05T15:38:34.146Z,101254.38
2022-08-05T15:41:23.890Z,101257.81
2022-08-05T15:43:51.059Z,101267.25
2022-08-05T15:46:20.461Z,101257.19
2022-08-05T15:48:58.888Z,101254.28
2022-08-05T15:52:12.440Z,101255.44
2022-08-05T15:54:34.542Z,101258.19
2022-08-05T15:57:07.292Z,101253.72
2022-08-05T15:59:36.214Z,101261.47
2022-08-05T16:02:09.407Z,101268.59
2022-08-05T16:04:43.060Z,101263.34
2022-08-05T16:07:12.113Z,101266.16
2022-08-05T16:09:42.083Z,101260.31
2022-08-05T16:12:12.810Z,101267.63
2022-08-05T16:14:40.648Z,101268.50
2022-08-05T16:17:09.480Z,101273.47
2022-08-05T16:20:04.313Z,101270.84
2022-08-05T16:22:27.725Z,101265.56
2022-08-05T16:25:09.602Z,101273.22
2022-08-05T16:28:00.512Z,101277.13
2022-08-05T16:30:28.802Z,101275.63
2022-08-05T16:32:57.023Z,101282.34
2022-08-05T16:35:28.389Z,101291.47
2022-08-05T16:38:02.277Z,101288.41
2022-08-05T16:40:51.943Z,101288.53
2022-08-05T16:43:26.301Z,101292.28
2022-08-05T16:46:06.137Z,101300.81
2022-08-05T16:48:40.338Z,101298.78
2022-08-05T16:51:09.287Z,101307.56
2022-08-05T16:54:04.738Z,101307.41
2022-08-05T16:56:29.090Z,101312.00
2022-08-05T16:59:00.802Z,101314.19
2022-08-05T17:01:53.134Z,101321.50
2022-08-05T17:04:26.624Z,101320.88
2022-08-05T17:06:55.590Z,101315.88
2022-08-05T17:09:24.848Z,101313.84
2022-08-05T17:11:59.336Z,101328.47
2022-08-05T17:14:36.756Z,101326.50
2022-08-05T17:17:09.328Z,101320.03
2022-08-05T17:19:45.704Z,101327.44
2022-08-05T17:22:24.561Z,101321.09
2022-08-05T17:24:57.541Z,101336.72
2022-08-05T17:27:33.940Z,101328.53
2022-08-05T17:30:11.786Z,101333.34
2022-08-05T17:32:42.052Z,101334.63
2022-08-05T17:35:12.095Z,101337.81
2022-08-05T17:37:45.355Z,101344.59
2022-08-05T17:40:17.196Z,101352.56
2022-08-05T17:42:50.487Z,101348.63
2022-08-05T17:45:22.915Z,101357.84
2022-08-05T17:47:54.973Z,101360.88
2022-08-05T17:50:29.005Z,101362.66
2022-08-05T17:53:02.405Z,101363.88
2022-08-05T17:55:38.021Z,101371.00
2022-08-05T17:58:10.895Z,101378.47
2022-08-05T18:00:45.385Z,101379.00
2022-08-05T18:03:56.498Z,101377.09
2022-08-05T18:06:12.236Z,101390.84
2022-08-05T18:08:45.848Z,101390.56
2022-08-05T18:11:23.702Z,101397.69
2022-08-05T18:13:54.530Z,101406.34
2022-08-05T18:16:24.741Z,101393.66
2022-08-05T18:18:52.597Z,101401.50
2022-08-05T18:21:22.738Z,101403.78
2022-08-05T18:23:54.304Z,101409.16
2022-08-05T18:26:28.947Z,101410.53
2022-08-05T18:28:57.964Z,101422.69
2022-08-05T18:31:33.016Z,101417.00
2022-08-05T18:34:03.691Z,101421.91
2022-08-05T18:36:35.376Z,101428.81
2022-08-05T18:39:03.800Z,101429.50
2022-08-05T18:41:58.149Z,101427.50
2022-08-05T18:44:35.151Z,101440.72
2022-08-05T18:47:16.626Z,101433.28
2022-08-05T18:50:02.097Z,101436.94
2022-08-05T18:52:35.942Z,101434.06
2022-08-05T18:55:10.367Z,101443.13
2022-08-05T18:57:43.660Z,101451.25
2022-08-05T19:00:28.477Z,101445.06
2022-08-05T19:03:04.125Z,101442.38
2022-08-05T19:06:12.384Z,101448.19
2022-08-05T19:08:22.422Z,101456.28
2022-08-05T19:11:02.874Z,101469.16
2022-08-05T19:13:35.571Z,101466.41
2022-08-05T19:16:04.801Z,101471.28
2022-08-05T19:18:56.638Z,101468.25
2022-08-05T19:21:27.609Z,101470.53
2022-08-05T19:24:07.431Z,101477.00
2022-08-05T19:26:54.239Z,101482.50
2022-08-05T19:29:26.628Z,101480.94
2022-08-05T19:32:03.591Z,101488.03
2022-08-05T19:34:34.594Z,101501.56
2022-08-05T19:37:03.117Z,101500.13
2022-08-05T19:39:32.003Z,101514.47
2022-08-05T19:42:15.335Z,101521.84
2022-08-05T19:44:44.959Z,101522.13
2022-08-05T19:47:16.116Z,101536.81
2022-08-05T19:49:47.960Z,101530.09
2022-08-05T19:52:31.053Z,101539.25
2022-08-05T19:55:07.220Z,101550.81
2022-08-05T19:58:06.817Z,101557.25
2022-08-05T20:00:37.492Z,101557.69
2022-08-05T20:03:09.133Z,101556.59
2022-08-05T20:05:43.182Z,101563.69
2022-08-05T20:08:11.514Z,101569.22
2022-08-05T20:10:39.533Z,101575.50
2022-08-05T20:13:12.132Z,101569.75
2022-08-05T20:15:51.887Z,101571.84
2022-08-05T20:18:33.829Z,101580.84
2022-08-05T20:21:06.904Z,101589.25
2022-08-05T20:23:40.502Z,101592.94
2022-08-05T20:26:19.266Z,101596.44
2022-08-05T20:28:48.573Z,101601.16
2022-08-05T20:31:17.072Z,101604.56
2022-08-05T20:33:45.491Z,101601.41
2022-08-05T20:36:16.275Z,101602.66
2022-08-05T20:38:53.553Z,101602.84
2022-08-05T20:41:24.119Z,101603.28
2022-08-05T20:43:58.846Z,101607.72
2022-08-05T20:46:30.753Z,101620.81
2022-08-05T20:48:59.619Z,101618.09
2022-08-05T20:51:28.885Z,101624.28
2022-08-05T20:53:57.265Z,101619.16
2022-08-05T20:56:41.924Z,101626.13
2022-08-05T20:59:14.052Z,101623.59
2022-08-05T21:01:47.567Z,101626.47
2022-08-05T21:04:18.571Z,101633.75
2022-08-05T21:06:47.864Z,101629.78
2022-08-05T21:09:16.054Z,101638.03
2022-08-05T21:12:10.353Z,101641.09
2022-08-05T21:14:35.011Z,101633.56
2022-08-05T21:17:05.253Z,101645.13
2022-08-05T21:19:47.311Z,101642.94
2022-08-05T21:22:21.641Z,101645.81
2022-08-05T21:24:51.564Z,101652.09
2022-08-05T21:27:25.327Z,101651.09
2022-08-05T21:29:55.913Z,101652.16
2022-08-05T21:32:26.676Z,101653.06
2022-08-05T21:35:16.806Z,101659.31
2022-08-05T21:37:47.468Z,101665.69
2022-08-05T21:40:21.709Z,101663.41
2022-08-05T21:42:51.615Z,101664.31
2022-08-05T21:45:24.989Z,101675.78
2022-08-05T21:48:08.490Z,101680.97
2022-08-05T21:50:36.712Z,101683.69
2022-08-05T21:53:17.394Z,101684.47
2022-08-05T21:56:06.334Z,101695.84
2022-08-05T21:58:33.891Z,101679.28
2022-08-05T22:01:01.980Z,101687.31
2022-08-05T22:03:52.216Z,101697.88
2022-08-05T22:06:23.034Z,101694.47
2022-08-05T22:09:13.762Z,101685.03
2022-08-05T22:11:46.718Z,101692.06
2022-08-05T22:14:34.479Z,101691.13
2022-08-05T22:17:06.764Z,101698.53
2022-08-05T22:20:00.697Z,101696.78
2022-08-05T22:22:27.150Z,101704.75
2022-08-05T22:25:21.137Z,101704.88
2022-08-05T22:28:08.677Z,101706.63
2022-08-05T22:30:43.961Z,101705.84
2022-08-05T22:33:55.867Z,101708.75
2022-08-05T22:36:09.665Z,101703.56
2022-08-05T22:38:38.280Z,101703.53
2022-08-05T22:41:11.965Z,101698.34
2022-08-05T22:43:42.985Z,101705.63
2022-08-05T22:46:13.744Z,101722.59
2022-08-05T22:48:51.676Z,101730.72
2022-08-05T22:51:22.715Z,101729.97
2022-08-05T22:53:51.018Z,101730.91
2022-08-05T22:56:29.706Z,101734.53
2022-08-05T22:59:00.051Z,101732.03
2022-08-05T23:02:03.963Z,101741.13
2022-08-05T23:04:19.585Z,101741.19
2022-08-05T23:06:47.768Z,101737.69
2022-08-05T23:09:53.501Z,101746.41
2022-08-05T23:12:05.975Z,101751.91
2022-08-05T23:14:34.029Z,101750.22
2022-08-05T23:17:24.245Z,101760.78
2022-08-05T23:20:02.424Z,101758.16
2022-08-05T23:22:31.106Z,101764.50
2022-08-05T23:24:59.258Z,101775.16
2022-08-05T23:27:31.448Z,101775.25
2022-08-05T23:30:11.503Z,101783.97
2022-08-05T23:32:45.166Z,101778.63
2022-08-05T23:35:13.419Z,101777.94
2022-08-05T23:37:41.437Z,101785.88
2022-08-05T23:40:12.008Z,101783.22
2022-08-05T23:42:41.256Z,101792.94
2022-08-05T23:45:15.906Z,101793.78
2022-08-05T23:47:48.281Z,101807.91
2022-08-05T23:50:17.021Z,101809.78
2022-08-05T23:52:50.000Z,101807.19
2022-08-05T23:55:19.845Z,101811.63
2022-08-05T23:57:52.734Z,101811.69
